sensor_id;sensor_type;location;lat;lon;timestamp;temperature;humidity
5899;DHT22;2975;50.956;6.962;2022-10-16T00:00:38;14.60;99.90
5899;DHT22;2975;50.956;6.962;2022-10-16T00:03:04;14.60;99.90
5899;DHT22;2975;50.956;6.962;2022-10-16T00:05:30;14.50;99.90
5899;DHT22;2975;50.956;6.962;2022-10-16T00:07:56;14.50;99.90
5899;DHT22;2975;50.956;6.962;2022-10-16T00:10:22;14.50;99.90
5899;DHT22;2975;50.956;6.962;2022-10-16T00:12:48;14.50;99.90
5899;DHT22;2975;50.956;6.962;2022-10-16T00:15:14;14.50;99.90
5899;DHT22;2975;50.956;6.962;2022-10-16T00:17:39;14.50;99.90
5899;DHT22;2975;50.956;6.962;2022-10-16T00:20:05;14.40;99.90
5899;DHT22;2975;50.956;6.962;2022-10-16T00:22:31;14.40;99.90
5899;DHT22;2975;50.956;6.962;2022-10-16T00:24:57;14.30;99.90
5899;DHT22;2975;50.956;6.962;2022-10-16T00:27:23;14.30;99.90
5899;DHT22;2975;50.956;6.962;2022-10-16T00:29:52;14.30;99.90
5899;DHT22;2975;50.956;6.962;2022-10-16T00:32:19;14.30;99.90
5899;DHT22;2975;50.956;6.962;2022-10-16T00:34:44;14.20;99.90
5899;DHT22;2975;50.956;6.962;2022-10-16T00:37:11;14.20;99.90
5899;DHT22;2975;50.956;6.962;2022-10-16T00:39:37;14.20;99.90
5899;DHT22;2975;50.956;6.962;2022-10-16T00:42:02;14.20;99.90
5899;DHT22;2975;50.956;6.962;2022-10-16T00:45:00;14.10;99.90
5899;DHT22;2975;50.956;6.962;2022-10-16T00:47:29;14.00;99.90
5899;DHT22;2975;50.956;6.962;2022-10-16T00:50:02;14.00;99.90
5899;DHT22;2975;50.956;6.962;2022-10-16T00:52:30;13.90;99.90
5899;DHT22;2975;50.956;6.962;2022-10-16T00:54:57;13.90;99.90
5899;DHT22;2975;50.956;6.962;2022-10-16T00:57:23;13.80;99.90
5899;DHT22;2975;50.956;6.962;2022-10-16T00:59:49;13.80;99.90
5899;DHT22;2975;50.956;6.962;2022-10-16T01:02:16;13.80;99.90
5899;DHT22;2975;50.956;6.962;2022-10-16T01:04:50;13.80;99.90
5899;DHT22;2975;50.956;6.962;2022-10-16T01:12:57;13.70;99.90
5899;DHT22;2975;50.956;6.962;2022-10-16T01:18:45;13.60;99.90
5899;DHT22;2975;50.956;6.962;2022-10-16T01:21:29;13.60;99.90
5899;DHT22;2975;50.956;6.962;2022-10-16T01:32:00;13.50;99.90
5899;DHT22;2975;50.956;6.962;2022-10-16T01:35:09;13.50;99.90
5899;DHT22;2975;50.956;6.962;2022-10-16T01:37:38;13.50;99.90
5899;DHT22;2975;50.956;6.962;2022-10-16T01:40:09;13.60;99.90
5899;DHT22;2975;50.956;6.962;2022-10-16T01:42:40;13.60;99.90
5899;DHT22;2975;50.956;6.962;2022-10-16T01:45:08;13.60;99.90
5899;DHT22;2975;50.956;6.962;2022-10-16T01:47:37;13.60;99.90
5899;DHT22;2975;50.956;6.962;2022-10-16T01:50:05;13.60;99.90
5899;DHT22;2975;50.956;6.962;2022-10-16T01:52:33;13.60;99.90
5899;DHT22;2975;50.956;6.962;2022-10-16T01:55:00;13.60;99.90
5899;DHT22;2975;50.956;6.962;2022-10-16T01:57:29;13.60;99.90
5899;DHT22;2975;50.956;6.962;2022-10-16T01:59:58;13.60;99.90
5899;DHT22;2975;50.956;6.962;2022-10-16T02:02:27;13.60;99.90
5899;DHT22;2975;50.956;6.962;2022-10-16T02:04:58;13.60;99.90
5899;DHT22;2975;50.956;6.962;2022-10-16T02:07:27;13.70;99.90
5899;DHT22;2975;50.956;6.962;2022-10-16T02:09:52;13.80;99.90
5899;DHT22;2975;50.956;6.962;2022-10-16T02:12:28;13.80;99.90
5899;DHT22;2975;50.956;6.962;2022-10-16T02:14:55;13.90;99.90
5899;DHT22;2975;50.956;6.962;2022-10-16T02:17:21;13.90;99.90
5899;DHT22;2975;50.956;6.962;2022-10-16T02:19:48;14.00;99.90
5899;DHT22;2975;50.956;6.962;2022-10-16T02:22:19;14.10;99.90
5899;DHT22;2975;50.956;6.962;2022-10-16T02:24:58;14.10;99.90
5899;DHT22;2975;50.956;6.962;2022-10-16T02:30:01;14.20;99.90
5899;DHT22;2975;50.956;6.962;2022-10-16T02:32:33;14.20;99.90
5899;DHT22;2975;50.956;6.962;2022-10-16T02:35:00;14.20;99.90
5899;DHT22;2975;50.956;6.962;2022-10-16T02:37:27;14.30;99.90
5899;DHT22;2975;50.956;6.962;2022-10-16T02:39:55;14.30;99.90
5899;DHT22;2975;50.956;6.962;2022-10-16T02:42:21;14.30;99.90
5899;DHT22;2975;50.956;6.962;2022-10-16T02:44:52;14.30;99.90
5899;DHT22;2975;50.956;6.962;2022-10-16T02:47:18;14.30;99.90
5899;DHT22;2975;50.956;6.962;2022-10-16T02:49:43;14.40;99.90
5899;DHT22;2975;50.956;6.962;2022-10-16T02:52:09;14.40;99.90
5899;DHT22;2975;50.956;6.962;2022-10-16T02:54:34;14.40;99.90
5899;DHT22;2975;50.956;6.962;2022-10-16T02:57:00;14.40;99.90
5899;DHT22;2975;50.956;6.962;2022-10-16T02:59:26;14.40;99.90
5899;DHT22;2975;50.956;6.962;2022-10-16T03:01:51;14.40;99.90
5899;DHT22;2975;50.956;6.962;2022-10-16T03:21:23;14.30;99.90
5899;DHT22;2975;50.956;6.962;2022-10-16T03:23:49;14.20;99.90
5899;DHT22;2975;50.956;6.962;2022-10-16T03:26:14;14.10;99.90
5899;DHT22;2975;50.956;6.962;2022-10-16T03:28:40;14.00;99.90
5899;DHT22;2975;50.956;6.962;2022-10-16T03:31:05;13.90;99.90
5899;DHT22;2975;50.956;6.962;2022-10-16T03:33:31;13.90;99.90
5899;DHT22;2975;50.956;6.962;2022-10-16T03:35:57;13.90;99.90
5899;DHT22;2975;50.956;6.962;2022-10-16T03:38:23;13.80;99.90
5899;DHT22;2975;50.956;6.962;2022-10-16T03:40:48;13.90;99.90
5899;DHT22;2975;50.956;6.962;2022-10-16T03:43:14;13.90;99.90
5899;DHT22;2975;50.956;6.962;2022-10-16T03:45:39;13.90;99.90
5899;DHT22;2975;50.956;6.962;2022-10-16T03:48:05;13.90;99.90
5899;DHT22;2975;50.956;6.962;2022-10-16T03:50:31;14.00;99.90
5899;DHT22;2975;50.956;6.962;2022-10-16T03:52:57;14.00;99.90
5899;DHT22;2975;50.956;6.962;2022-10-16T03:55:22;14.00;99.90
5899;DHT22;2975;50.956;6.962;2022-10-16T03:57:48;14.10;99.90
5899;DHT22;2975;50.956;6.962;2022-10-16T04:00:14;14.10;99.90
5899;DHT22;2975;50.956;6.962;2022-10-16T04:02:40;14.10;99.90
5899;DHT22;2975;50.956;6.962;2022-10-16T04:05:06;14.20;99.90
5899;DHT22;2975;50.956;6.962;2022-10-16T04:07:32;14.20;99.90
5899;DHT22;2975;50.956;6.962;2022-10-16T04:09:57;14.30;99.90
5899;DHT22;2975;50.956;6.962;2022-10-16T04:12:25;14.30;99.90
5899;DHT22;2975;50.956;6.962;2022-10-16T04:14:51;14.30;99.90
5899;DHT22;2975;50.956;6.962;2022-10-16T04:17:16;14.30;99.90
5899;DHT22;2975;50.956;6.962;2022-10-16T04:19:42;14.30;99.90
5899;DHT22;2975;50.956;6.962;2022-10-16T04:22:08;14.30;99.90
5899;DHT22;2975;50.956;6.962;2022-10-16T04:24:33;14.40;99.90
5899;DHT22;2975;50.956;6.962;2022-10-16T04:26:59;14.40;99.90
5899;DHT22;2975;50.956;6.962;2022-10-16T04:29:24;14.40;99.90
5899;DHT22;2975;50.956;6.962;2022-10-16T04:31:50;14.30;99.90
5899;DHT22;2975;50.956;6.962;2022-10-16T04:34:16;14.30;99.90
5899;DHT22;2975;50.956;6.962;2022-10-16T04:36:41;14.30;99.90
5899;DHT22;2975;50.956;6.962;2022-10-16T04:39:07;14.20;99.90
5899;DHT22;2975;50.956;6.962;2022-10-16T04:41:33;14.30;99.90
5899;DHT22;2975;50.956;6.962;2022-10-16T04:43:58;14.20;99.90
5899;DHT22;2975;50.956;6.962;2022-10-16T04:46:24;14.20;99.90
5899;DHT22;2975;50.956;6.962;2022-10-16T04:48:49;14.20;99.90
5899;DHT22;2975;50.956;6.962;2022-10-16T04:51:15;14.20;99.90
5899;DHT22;2975;50.956;6.962;2022-10-16T04:53:41;14.20;99.90
5899;DHT22;2975;50.956;6.962;2022-10-16T04:56:06;14.20;99.90
5899;DHT22;2975;50.956;6.962;2022-10-16T04:58:32;14.10;99.90
5899;DHT22;2975;50.956;6.962;2022-10-16T05:00:58;14.10;99.90
5899;DHT22;2975;50.956;6.962;2022-10-16T05:03:23;14.10;99.90
5899;DHT22;2975;50.956;6.962;2022-10-16T05:05:49;14.10;99.90
5899;DHT22;2975;50.956;6.962;2022-10-16T05:08:16;14.10;99.90
5899;DHT22;2975;50.956;6.962;2022-10-16T05:10:42;14.10;99.90
5899;DHT22;2975;50.956;6.962;2022-10-16T05:13:08;14.10;99.90
5899;DHT22;2975;50.956;6.962;2022-10-16T05:15:34;14.10;99.90
5899;DHT22;2975;50.956;6.962;2022-10-16T05:17:59;14.10;99.90
5899;DHT22;2975;50.956;6.962;2022-10-16T05:20:25;14.10;99.90
5899;DHT22;2975;50.956;6.962;2022-10-16T05:22:51;14.20;99.90
5899;DHT22;2975;50.956;6.962;2022-10-16T05:25:17;14.30;99.90
5899;DHT22;2975;50.956;6.962;2022-10-16T05:27:42;14.30;99.90
5899;DHT22;2975;50.956;6.962;2022-10-16T05:30:08;14.40;99.90
5899;DHT22;2975;50.956;6.962;2022-10-16T05:32:34;14.40;99.90
5899;DHT22;2975;50.956;6.962;2022-10-16T05:35:00;14.40;99.90
5899;DHT22;2975;50.956;6.962;2022-10-16T05:37:27;14.40;99.90
5899;DHT22;2975;50.956;6.962;2022-10-16T05:39:53;14.30;99.90
5899;DHT22;2975;50.956;6.962;2022-10-16T05:42:18;14.20;99.90
5899;DHT22;2975;50.956;6.962;2022-10-16T05:44:44;14.20;99.90
5899;DHT22;2975;50.956;6.962;2022-10-16T05:47:10;14.20;99.90
5899;DHT22;2975;50.956;6.962;2022-10-16T05:49:36;14.20;99.90
5899;DHT22;2975;50.956;6.962;2022-10-16T05:52:01;14.20;99.90
5899;DHT22;2975;50.956;6.962;2022-10-16T05:54:27;14.20;99.90
5899;DHT22;2975;50.956;6.962;2022-10-16T05:56:53;14.10;99.90
5899;DHT22;2975;50.956;6.962;2022-10-16T05:59:18;14.00;99.90
5899;DHT22;2975;50.956;6.962;2022-10-16T06:01:44;13.90;99.90
5899;DHT22;2975;50.956;6.962;2022-10-16T06:04:09;13.90;99.90
5899;DHT22;2975;50.956;6.962;2022-10-16T06:06:35;13.90;99.90
5899;DHT22;2975;50.956;6.962;2022-10-16T06:09:02;13.90;99.90
5899;DHT22;2975;50.956;6.962;2022-10-16T06:11:30;13.90;99.90
5899;DHT22;2975;50.956;6.962;2022-10-16T06:13:58;13.90;99.90
5899;DHT22;2975;50.956;6.962;2022-10-16T06:16:26;13.90;99.90
5899;DHT22;2975;50.956;6.962;2022-10-16T06:18:53;13.80;99.90
5899;DHT22;2975;50.956;6.962;2022-10-16T06:21:20;13.90;99.90
5899;DHT22;2975;50.956;6.962;2022-10-16T06:23:46;13.90;99.90
5899;DHT22;2975;50.956;6.962;2022-10-16T06:26:18;14.00;99.90
5899;DHT22;2975;50.956;6.962;2022-10-16T06:28:44;14.10;99.90
5899;DHT22;2975;50.956;6.962;2022-10-16T06:31:11;14.10;99.90
5899;DHT22;2975;50.956;6.962;2022-10-16T06:33:37;14.20;99.90
5899;DHT22;2975;50.956;6.962;2022-10-16T06:36:04;14.20;99.90
5899;DHT22;2975;50.956;6.962;2022-10-16T06:38:30;14.30;99.90
5899;DHT22;2975;50.956;6.962;2022-10-16T06:40:56;14.40;99.90
5899;DHT22;2975;50.956;6.962;2022-10-16T06:43:22;14.50;99.90
5899;DHT22;2975;50.956;6.962;2022-10-16T06:45:55;14.70;99.90
5899;DHT22;2975;50.956;6.962;2022-10-16T06:48:22;14.80;99.90
5899;DHT22;2975;50.956;6.962;2022-10-16T06:53:28;15.10;99.90
5899;DHT22;2975;50.956;6.962;2022-10-16T06:55:54;15.20;99.90
5899;DHT22;2975;50.956;6.962;2022-10-16T06:58:19;15.40;99.90
5899;DHT22;2975;50.956;6.962;2022-10-16T07:00:45;15.50;99.90
5899;DHT22;2975;50.956;6.962;2022-10-16T07:03:11;15.70;99.90
5899;DHT22;2975;50.956;6.962;2022-10-16T07:05:43;15.70;99.90
5899;DHT22;2975;50.956;6.962;2022-10-16T07:08:09;15.80;99.90
5899;DHT22;2975;50.956;6.962;2022-10-16T07:10:35;15.90;99.90
5899;DHT22;2975;50.956;6.962;2022-10-16T07:13:01;15.90;99.90
5899;DHT22;2975;50.956;6.962;2022-10-16T07:15:27;16.00;99.90
5899;DHT22;2975;50.956;6.962;2022-10-16T07:17:53;16.20;99.90
5899;DHT22;2975;50.956;6.962;2022-10-16T07:20:19;16.30;99.90
5899;DHT22;2975;50.956;6.962;2022-10-16T07:22:44;16.30;99.90
5899;DHT22;2975;50.956;6.962;2022-10-16T07:25:10;16.30;99.90
5899;DHT22;2975;50.956;6.962;2022-10-16T07:27:37;16.30;99.90
5899;DHT22;2975;50.956;6.962;2022-10-16T07:30:03;16.30;99.90
5899;DHT22;2975;50.956;6.962;2022-10-16T07:32:29;16.40;99.90
5899;DHT22;2975;50.956;6.962;2022-10-16T07:34:54;16.50;99.90
5899;DHT22;2975;50.956;6.962;2022-10-16T07:37:21;16.50;99.90
5899;DHT22;2975;50.956;6.962;2022-10-16T07:39:47;16.60;99.90
5899;DHT22;2975;50.956;6.962;2022-10-16T07:42:13;16.50;99.90
5899;DHT22;2975;50.956;6.962;2022-10-16T07:44:38;16.50;99.90
5899;DHT22;2975;50.956;6.962;2022-10-16T07:47:05;16.30;99.90
5899;DHT22;2975;50.956;6.962;2022-10-16T07:49:31;16.20;99.90
5899;DHT22;2975;50.956;6.962;2022-10-16T07:51:56;16.00;99.90
5899;DHT22;2975;50.956;6.962;2022-10-16T07:54:22;15.80;99.90
5899;DHT22;2975;50.956;6.962;2022-10-16T07:56:47;15.70;99.90
5899;DHT22;2975;50.956;6.962;2022-10-16T07:59:13;15.60;99.90
5899;DHT22;2975;50.956;6.962;2022-10-16T08:01:39;15.50;99.90
5899;DHT22;2975;50.956;6.962;2022-10-16T08:04:05;15.50;99.90
5899;DHT22;2975;50.956;6.962;2022-10-16T08:06:36;15.40;99.90
5899;DHT22;2975;50.956;6.962;2022-10-16T08:09:02;15.40;99.90
5899;DHT22;2975;50.956;6.962;2022-10-16T08:11:27;15.30;99.90
5899;DHT22;2975;50.956;6.962;2022-10-16T08:13:53;15.30;99.90
5899;DHT22;2975;50.956;6.962;2022-10-16T08:16:19;15.30;99.90
5899;DHT22;2975;50.956;6.962;2022-10-16T08:18:45;15.30;99.90
5899;DHT22;2975;50.956;6.962;2022-10-16T08:21:16;15.40;99.90
5899;DHT22;2975;50.956;6.962;2022-10-16T08:23:42;15.40;99.90
5899;DHT22;2975;50.956;6.962;2022-10-16T08:26:10;15.50;99.90
5899;DHT22;2975;50.956;6.962;2022-10-16T08:28:36;15.70;99.90
5899;DHT22;2975;50.956;6.962;2022-10-16T08:31:14;15.90;99.90
5899;DHT22;2975;50.956;6.962;2022-10-16T08:33:41;16.00;99.90
5899;DHT22;2975;50.956;6.962;2022-10-16T08:36:09;16.20;99.90
5899;DHT22;2975;50.956;6.962;2022-10-16T08:38:35;16.20;99.90
5899;DHT22;2975;50.956;6.962;2022-10-16T08:44:19;16.20;99.90
5899;DHT22;2975;50.956;6.962;2022-10-16T08:49:31;16.20;99.90
5899;DHT22;2975;50.956;6.962;2022-10-16T08:51:57;16.20;99.90
5899;DHT22;2975;50.956;6.962;2022-10-16T08:54:34;16.20;99.90
5899;DHT22;2975;50.956;6.962;2022-10-16T08:57:20;16.20;99.90
5899;DHT22;2975;50.956;6.962;2022-10-16T08:59:46;16.20;99.90
5899;DHT22;2975;50.956;6.962;2022-10-16T09:02:33;16.30;99.90
5899;DHT22;2975;50.956;6.962;2022-10-16T09:10:26;16.40;99.90
5899;DHT22;2975;50.956;6.962;2022-10-16T09:13:19;16.40;99.90
5899;DHT22;2975;50.956;6.962;2022-10-16T09:15:48;16.50;99.90
5899;DHT22;2975;50.956;6.962;2022-10-16T09:18:39;16.60;99.90
5899;DHT22;2975;50.956;6.962;2022-10-16T09:21:26;16.60;99.90
5899;DHT22;2975;50.956;6.962;2022-10-16T09:23:54;16.60;99.90
5899;DHT22;2975;50.956;6.962;2022-10-16T09:26:22;16.60;99.90
5899;DHT22;2975;50.956;6.962;2022-10-16T09:28:48;16.70;99.90
5899;DHT22;2975;50.956;6.962;2022-10-16T09:31:18;16.80;99.90
5899;DHT22;2975;50.956;6.962;2022-10-16T09:33:50;16.70;99.90
5899;DHT22;2975;50.956;6.962;2022-10-16T09:36:17;16.80;99.90
5899;DHT22;2975;50.956;6.962;2022-10-16T09:38:43;16.80;99.90
5899;DHT22;2975;50.956;6.962;2022-10-16T09:41:22;16.80;99.90
5899;DHT22;2975;50.956;6.962;2022-10-16T09:43:59;16.90;99.90
5899;DHT22;2975;50.956;6.962;2022-10-16T09:46:35;16.80;99.90
5899;DHT22;2975;50.956;6.962;2022-10-16T09:49:05;16.90;99.90
5899;DHT22;2975;50.956;6.962;2022-10-16T09:51:34;16.90;99.90
5899;DHT22;2975;50.956;6.962;2022-10-16T09:56:36;17.00;99.90
5899;DHT22;2975;50.956;6.962;2022-10-16T09:59:18;17.10;99.90
5899;DHT22;2975;50.956;6.962;2022-10-16T10:01:47;17.10;99.90
5899;DHT22;2975;50.956;6.962;2022-10-16T10:04:13;17.20;99.90
5899;DHT22;2975;50.956;6.962;2022-10-16T10:06:51;17.30;99.90
5899;DHT22;2975;50.956;6.962;2022-10-16T10:11:55;17.40;99.90
5899;DHT22;2975;50.956;6.962;2022-10-16T10:14:38;17.50;99.90
5899;DHT22;2975;50.956;6.962;2022-10-16T10:20:01;17.50;99.90
5899;DHT22;2975;50.956;6.962;2022-10-16T10:22:44;17.50;99.90
5899;DHT22;2975;50.956;6.962;2022-10-16T10:27:46;17.60;99.90
5899;DHT22;2975;50.956;6.962;2022-10-16T10:30:24;17.70;99.90
5899;DHT22;2975;50.956;6.962;2022-10-16T10:46:05;18.20;99.90
5899;DHT22;2975;50.956;6.962;2022-10-16T10:51:39;18.50;99.90
5899;DHT22;2975;50.956;6.962;2022-10-16T10:54:28;18.50;99.90
5899;DHT22;2975;50.956;6.962;2022-10-16T10:57:14;18.70;99.90
5899;DHT22;2975;50.956;6.962;2022-10-16T11:05:37;19.00;99.90
5899;DHT22;2975;50.956;6.962;2022-10-16T11:08:22;19.10;99.90
5899;DHT22;2975;50.956;6.962;2022-10-16T11:16:43;19.30;99.40
5899;DHT22;2975;50.956;6.962;2022-10-16T11:22:26;19.40;99.50
5899;DHT22;2975;50.956;6.962;2022-10-16T11:27:39;19.40;99.20
5899;DHT22;2975;50.956;6.962;2022-10-16T11:30:20;19.50;98.50
5899;DHT22;2975;50.956;6.962;2022-10-16T11:32:56;19.70;98.90
5899;DHT22;2975;50.956;6.962;2022-10-16T11:35:47;19.80;98.10
5899;DHT22;2975;50.956;6.962;2022-10-16T11:40:56;19.90;97.60
5899;DHT22;2975;50.956;6.962;2022-10-16T11:43:43;19.90;97.80
5899;DHT22;2975;50.956;6.962;2022-10-16T11:46:21;19.80;97.50
5899;DHT22;2975;50.956;6.962;2022-10-16T11:49:28;19.80;98.10
5899;DHT22;2975;50.956;6.962;2022-10-16T11:52:11;19.90;97.80
5899;DHT22;2975;50.956;6.962;2022-10-16T11:54:54;20.10;97.70
5899;DHT22;2975;50.956;6.962;2022-10-16T11:57:24;20.20;96.40
5899;DHT22;2975;50.956;6.962;2022-10-16T12:05:28;20.60;95.60
5899;DHT22;2975;50.956;6.962;2022-10-16T12:08:11;20.50;95.10
5899;DHT22;2975;50.956;6.962;2022-10-16T12:10:40;20.50;95.40
5899;DHT22;2975;50.956;6.962;2022-10-16T12:16:19;20.30;96.10
5899;DHT22;2975;50.956;6.962;2022-10-16T12:18:47;20.20;96.10
5899;DHT22;2975;50.956;6.962;2022-10-16T12:21:15;20.20;95.60
5899;DHT22;2975;50.956;6.962;2022-10-16T12:23:54;20.20;96.00
5899;DHT22;2975;50.956;6.962;2022-10-16T12:26:25;20.20;95.60
5899;DHT22;2975;50.956;6.962;2022-10-16T12:28:51;20.20;95.00
5899;DHT22;2975;50.956;6.962;2022-10-16T12:31:17;20.30;95.50
5899;DHT22;2975;50.956;6.962;2022-10-16T12:34:03;20.50;95.70
5899;DHT22;2975;50.956;6.962;2022-10-16T12:36:32;20.90;95.30
5899;DHT22;2975;50.956;6.962;2022-10-16T12:38:58;21.20;95.10
5899;DHT22;2975;50.956;6.962;2022-10-16T12:41:29;21.30;94.50
5899;DHT22;2975;50.956;6.962;2022-10-16T12:43:55;21.30;93.90
5899;DHT22;2975;50.956;6.962;2022-10-16T12:46:44;21.30;92.60
5899;DHT22;2975;50.956;6.962;2022-10-16T12:51:38;21.00;92.50
5899;DHT22;2975;50.956;6.962;2022-10-16T12:59:46;20.30;93.90
5899;DHT22;2975;50.956;6.962;2022-10-16T13:18:56;20.40;95.50
5899;DHT22;2975;50.956;6.962;2022-10-16T13:24:16;20.30;95.60
5899;DHT22;2975;50.956;6.962;2022-10-16T13:29:34;20.10;95.90
5899;DHT22;2975;50.956;6.962;2022-10-16T13:32:06;20.00;96.20
5899;DHT22;2975;50.956;6.962;2022-10-16T13:34:32;20.00;96.40
5899;DHT22;2975;50.956;6.962;2022-10-16T13:36:57;20.00;96.30
5899;DHT22;2975;50.956;6.962;2022-10-16T13:39:27;20.10;95.80
5899;DHT22;2975;50.956;6.962;2022-10-16T13:42:14;20.20;95.40
5899;DHT22;2975;50.956;6.962;2022-10-16T13:44:44;20.30;95.40
5899;DHT22;2975;50.956;6.962;2022-10-16T13:47:31;20.50;94.90
5899;DHT22;2975;50.956;6.962;2022-10-16T13:50:10;20.70;94.90
5899;DHT22;2975;50.956;6.962;2022-10-16T13:52:36;20.90;94.70
5899;DHT22;2975;50.956;6.962;2022-10-16T13:55:13;21.10;94.80
5899;DHT22;2975;50.956;6.962;2022-10-16T13:57:39;21.20;94.40
5899;DHT22;2975;50.956;6.962;2022-10-16T14:00:19;21.40;93.60
5899;DHT22;2975;50.956;6.962;2022-10-16T14:02:45;21.40;93.30
5899;DHT22;2975;50.956;6.962;2022-10-16T14:05:15;21.40;93.40
5899;DHT22;2975;50.956;6.962;2022-10-16T14:07:42;21.30;93.40
5899;DHT22;2975;50.956;6.962;2022-10-16T14:10:22;21.30;93.30
5899;DHT22;2975;50.956;6.962;2022-10-16T14:12:56;21.20;93.70
5899;DHT22;2975;50.956;6.962;2022-10-16T14:15:22;21.10;93.90
5899;DHT22;2975;50.956;6.962;2022-10-16T14:17:50;21.10;93.90
5899;DHT22;2975;50.956;6.962;2022-10-16T14:20:27;21.10;93.90
5899;DHT22;2975;50.956;6.962;2022-10-16T14:23:18;21.00;94.10
5899;DHT22;2975;50.956;6.962;2022-10-16T14:25:44;20.90;94.40
5899;DHT22;2975;50.956;6.962;2022-10-16T14:30:51;20.80;94.80
5899;DHT22;2975;50.956;6.962;2022-10-16T14:36:04;20.60;95.30
5899;DHT22;2975;50.956;6.962;2022-10-16T14:38:30;20.50;95.30
5899;DHT22;2975;50.956;6.962;2022-10-16T14:40:58;20.50;95.50
5899;DHT22;2975;50.956;6.962;2022-10-16T14:43:38;20.60;95.80
5899;DHT22;2975;50.956;6.962;2022-10-16T14:46:09;20.50;96.00
5899;DHT22;2975;50.956;6.962;2022-10-16T14:48:41;20.50;96.00
5899;DHT22;2975;50.956;6.962;2022-10-16T14:51:14;20.60;96.20
5899;DHT22;2975;50.956;6.962;2022-10-16T14:53:40;20.60;96.40
5899;DHT22;2975;50.956;6.962;2022-10-16T14:56:07;20.70;96.80
5899;DHT22;2975;50.956;6.962;2022-10-16T14:58:35;20.80;96.70
5899;DHT22;2975;50.956;6.962;2022-10-16T15:01:00;20.80;96.80
5899;DHT22;2975;50.956;6.962;2022-10-16T15:03:26;20.80;96.90
5899;DHT22;2975;50.956;6.962;2022-10-16T15:05:52;20.80;97.20
5899;DHT22;2975;50.956;6.962;2022-10-16T15:08:17;20.70;97.50
5899;DHT22;2975;50.956;6.962;2022-10-16T15:10:43;20.60;97.60
5899;DHT22;2975;50.956;6.962;2022-10-16T15:13:13;20.50;97.80
5899;DHT22;2975;50.956;6.962;2022-10-16T15:15:43;20.40;98.20
5899;DHT22;2975;50.956;6.962;2022-10-16T15:18:09;20.30;98.40
5899;DHT22;2975;50.956;6.962;2022-10-16T15:20:36;20.30;98.60
5899;DHT22;2975;50.956;6.962;2022-10-16T15:23:13;20.30;98.80
5899;DHT22;2975;50.956;6.962;2022-10-16T15:25:51;20.20;99.20
5899;DHT22;2975;50.956;6.962;2022-10-16T15:28:17;20.10;99.50
5899;DHT22;2975;50.956;6.962;2022-10-16T15:30:44;20.00;99.90
5899;DHT22;2975;50.956;6.962;2022-10-16T15:33:19;20.00;99.90
5899;DHT22;2975;50.956;6.962;2022-10-16T15:35:48;19.90;99.90
5899;DHT22;2975;50.956;6.962;2022-10-16T15:38:15;19.90;99.90
5899;DHT22;2975;50.956;6.962;2022-10-16T15:40:42;19.80;99.90
5899;DHT22;2975;50.956;6.962;2022-10-16T15:43:08;19.70;99.90
5899;DHT22;2975;50.956;6.962;2022-10-16T15:45:34;19.60;99.90
5899;DHT22;2975;50.956;6.962;2022-10-16T15:48:00;19.60;99.90
5899;DHT22;2975;50.956;6.962;2022-10-16T15:50:25;19.50;99.90
5899;DHT22;2975;50.956;6.962;2022-10-16T15:52:52;19.50;99.90
5899;DHT22;2975;50.956;6.962;2022-10-16T15:55:18;19.40;99.90
5899;DHT22;2975;50.956;6.962;2022-10-16T15:57:44;19.40;99.90
5899;DHT22;2975;50.956;6.962;2022-10-16T16:00:19;19.30;99.90
5899;DHT22;2975;50.956;6.962;2022-10-16T16:02:52;19.30;99.90
5899;DHT22;2975;50.956;6.962;2022-10-16T16:05:18;19.20;99.90
5899;DHT22;2975;50.956;6.962;2022-10-16T16:07:44;19.10;99.90
5899;DHT22;2975;50.956;6.962;2022-10-16T16:10:11;19.00;99.90
5899;DHT22;2975;50.956;6.962;2022-10-16T16:12:37;19.00;99.90
5899;DHT22;2975;50.956;6.962;2022-10-16T16:15:08;19.00;99.90
5899;DHT22;2975;50.956;6.962;2022-10-16T16:17:35;18.90;99.90
5899;DHT22;2975;50.956;6.962;2022-10-16T16:20:02;18.90;99.90
5899;DHT22;2975;50.956;6.962;2022-10-16T16:22:29;18.80;99.90
5899;DHT22;2975;50.956;6.962;2022-10-16T16:24:54;18.90;99.90
5899;DHT22;2975;50.956;6.962;2022-10-16T16:27:20;18.80;99.90
5899;DHT22;2975;50.956;6.962;2022-10-16T16:29:46;18.80;99.90
5899;DHT22;2975;50.956;6.962;2022-10-16T16:32:12;18.80;99.90
5899;DHT22;2975;50.956;6.962;2022-10-16T16:34:38;18.80;99.90
5899;DHT22;2975;50.956;6.962;2022-10-16T16:37:03;18.70;99.90
5899;DHT22;2975;50.956;6.962;2022-10-16T16:39:29;18.60;99.90
5899;DHT22;2975;50.956;6.962;2022-10-16T16:41:57;18.60;99.90
5899;DHT22;2975;50.956;6.962;2022-10-16T16:44:28;18.50;99.90
5899;DHT22;2975;50.956;6.962;2022-10-16T16:46:53;18.40;99.90
5899;DHT22;2975;50.956;6.962;2022-10-16T16:49:20;18.40;99.90
5899;DHT22;2975;50.956;6.962;2022-10-16T16:51:45;18.30;99.90
5899;DHT22;2975;50.956;6.962;2022-10-16T16:54:11;18.20;99.90
5899;DHT22;2975;50.956;6.962;2022-10-16T16:56:38;18.20;99.90
5899;DHT22;2975;50.956;6.962;2022-10-16T16:59:04;18.10;99.90
5899;DHT22;2975;50.956;6.962;2022-10-16T17:01:30;18.10;99.90
5899;DHT22;2975;50.956;6.962;2022-10-16T17:03:57;18.10;99.90
5899;DHT22;2975;50.956;6.962;2022-10-16T17:06:26;18.00;99.90
5899;DHT22;2975;50.956;6.962;2022-10-16T17:08:52;18.10;99.90
5899;DHT22;2975;50.956;6.962;2022-10-16T17:11:21;18.10;99.90
5899;DHT22;2975;50.956;6.962;2022-10-16T17:13:47;18.20;99.90
5899;DHT22;2975;50.956;6.962;2022-10-16T17:16:13;18.20;99.90
5899;DHT22;2975;50.956;6.962;2022-10-16T17:18:39;18.20;99.90
5899;DHT22;2975;50.956;6.962;2022-10-16T17:21:07;18.20;99.90
5899;DHT22;2975;50.956;6.962;2022-10-16T17:23:35;18.10;99.90
5899;DHT22;2975;50.956;6.962;2022-10-16T17:26:08;18.10;99.90
5899;DHT22;2975;50.956;6.962;2022-10-16T17:28:34;18.10;99.90
5899;DHT22;2975;50.956;6.962;2022-10-16T17:31:14;18.00;99.90
5899;DHT22;2975;50.956;6.962;2022-10-16T17:33:41;18.00;99.90
5899;DHT22;2975;50.956;6.962;2022-10-16T17:36:06;18.00;99.90
5899;DHT22;2975;50.956;6.962;2022-10-16T17:38:33;18.00;99.90
5899;DHT22;2975;50.956;6.962;2022-10-16T17:40:58;18.00;99.90
5899;DHT22;2975;50.956;6.962;2022-10-16T17:43:34;18.00;99.90
5899;DHT22;2975;50.956;6.962;2022-10-16T17:46:01;18.00;99.90
5899;DHT22;2975;50.956;6.962;2022-10-16T17:48:27;18.00;99.90
5899;DHT22;2975;50.956;6.962;2022-10-16T17:50:53;18.00;99.90
5899;DHT22;2975;50.956;6.962;2022-10-16T17:53:18;18.00;99.90
5899;DHT22;2975;50.956;6.962;2022-10-16T17:55:44;18.00;99.90
5899;DHT22;2975;50.956;6.962;2022-10-16T17:58:09;18.00;99.90
5899;DHT22;2975;50.956;6.962;2022-10-16T18:00:35;18.00;99.90
5899;DHT22;2975;50.956;6.962;2022-10-16T18:03:01;18.00;99.90
5899;DHT22;2975;50.956;6.962;2022-10-16T18:05:26;18.00;99.90
5899;DHT22;2975;50.956;6.962;2022-10-16T18:07:52;18.00;99.90
5899;DHT22;2975;50.956;6.962;2022-10-16T18:10:18;18.00;99.90
5899;DHT22;2975;50.956;6.962;2022-10-16T18:12:43;18.00;99.90
5899;DHT22;2975;50.956;6.962;2022-10-16T18:15:09;18.10;99.90
5899;DHT22;2975;50.956;6.962;2022-10-16T18:17:36;18.00;99.90
5899;DHT22;2975;50.956;6.962;2022-10-16T18:20:06;18.00;99.90
5899;DHT22;2975;50.956;6.962;2022-10-16T18:22:35;18.00;99.90
5899;DHT22;2975;50.956;6.962;2022-10-16T18:25:03;17.90;99.90
5899;DHT22;2975;50.956;6.962;2022-10-16T18:27:30;17.90;99.90
5899;DHT22;2975;50.956;6.962;2022-10-16T18:29:56;18.00;99.90
5899;DHT22;2975;50.956;6.962;2022-10-16T18:32:23;18.00;99.90
5899;DHT22;2975;50.956;6.962;2022-10-16T18:34:49;18.00;99.90